Main page
METAR-TAF:

METAR-TAF

Airports :

London Stansted Airport

London-Stansted, England

latitude: 51-53N, longitude: 000-14E, elevation: 106 m

Current weather observation

The report was made 1 hour and 11 minutes ago, at 10:50 UTC
Wind 7 kt from the North/Northwest
Temperature 4°C
Humidity 87%
Pressure 1024 hPa
Visibility 10 km or more
no clouds below 1500 m and no cumulonimbus

METAR: EGSS 061050Z 34007KT CAVOK 04/02 Q1024

Time: 12:01 (12:01 UTC)

Forecast

The report was made 1 hour and 8 minutes ago, at 10:53 UTC
Forecast valid from 06 at 12 UTC to 07 at 18 UTC
Wind 6 kt from the North
Visibility 10 km or more
Few clouds at a height of 4500 ft
Probability 30% :
Temporary
from 06 at 13 UTC to 06 at 22 UTC
Broken clouds at a height of 800 ft
Probability 40% :
Temporary
from 06 at 22 UTC to 07 at 10 UTC
Visibility: 6000 m
Broken clouds at a height of 400 ft

TAF: EGSS 061053Z 0612/0718 35006KT 9999 FEW045 PROB30 TEMPO 0613/0622 BKN008 PROB40 TEMPO 0622/0710 6000 BKN004

Weather observations and forecasts of more than 4000 airports (METAR and TAF reports).

The available stations are represented by yellow and red dots on the map.

Hover mouse over dot to see the name of the station.

Then click to see weather observations and forecasts.

To change the map : click on the green buttons with a black cross to zoom in, on the green button with a dash to zoom out, or on the green arrows for adjacent maps.


METAR-TAF: